createdAt,value
2019-05-02T00:01:17.541Z,17.98
2019-05-02T00:03:44.740Z,15.63
2019-05-02T00:06:12.245Z,14.58
2019-05-02T00:08:39.453Z,14.60
2019-05-02T00:11:06.724Z,14.93
2019-05-02T00:13:33.981Z,15.23
2019-05-02T00:16:01.606Z,12.95
2019-05-02T00:18:31.845Z,16.00
2019-05-02T00:21:01.540Z,16.05
2019-05-02T00:23:28.130Z,15.78
2019-05-02T00:25:56.444Z,13.90
2019-05-02T00:28:23.844Z,17.57
2019-05-02T00:30:51.044Z,18.77
2019-05-02T00:33:18.246Z,16.27
2019-05-02T00:35:46.201Z,12.65
2019-05-02T00:38:14.578Z,14.43
2019-05-02T00:40:41.796Z,7.83
2019-05-02T00:43:09.060Z,8.80
2019-05-02T00:45:36.280Z,8.50
2019-05-02T00:48:07.785Z,10.60
2019-05-02T00:50:36.648Z,8.90
2019-05-02T00:53:07.101Z,8.48
2019-05-02T00:55:35.360Z,6.03
2019-05-02T00:58:02.539Z,4.97
2019-05-02T01:00:31.404Z,3.55
2019-05-02T01:03:00.506Z,5.45
2019-05-02T01:05:27.807Z,5.50
2019-05-02T01:07:56.160Z,3.83
2019-05-02T01:10:24.020Z,6.80
2019-05-02T01:12:51.220Z,5.85
2019-05-02T01:15:18.598Z,5.93
2019-05-02T01:17:45.829Z,4.70
2019-05-02T01:20:13.096Z,4.17
2019-05-02T01:22:40.335Z,4.22
2019-05-02T01:25:15.308Z,4.37
2019-05-02T01:27:42.565Z,4.45
2019-05-02T01:30:26.716Z,3.50
2019-05-02T01:33:06.298Z,9.58
2019-05-02T01:35:32.775Z,9.85
2019-05-02T01:38:18.369Z,10.28
2019-05-02T01:40:48.093Z,11.60
2019-05-02T01:43:20.132Z,12.10
2019-05-02T01:45:48.733Z,10.50
2019-05-02T01:48:15.956Z,8.43
2019-05-02T01:50:43.153Z,9.93
2019-05-02T01:53:10.372Z,6.87
2019-05-02T01:55:37.939Z,5.10
2019-05-02T01:58:05.160Z,3.95
2019-05-02T02:00:32.356Z,2.75
2019-05-02T02:03:04.272Z,6.85
2019-05-02T02:05:32.376Z,7.00
2019-05-02T02:07:57.560Z,7.67
2019-05-02T02:10:24.833Z,6.78
2019-05-02T02:13:03.638Z,5.12
2019-05-02T02:15:25.123Z,4.55
2019-05-02T02:17:51.461Z,2.77
2019-05-02T02:20:23.909Z,3.87
2019-05-02T02:22:52.841Z,2.75
2019-05-02T02:25:26.078Z,2.50
2019-05-02T02:27:55.018Z,2.20
2019-05-02T02:30:24.512Z,2.75
2019-05-02T02:32:51.209Z,2.90
2019-05-02T02:35:18.405Z,2.43
2019-05-02T02:37:52.731Z,2.52
2019-05-02T02:40:14.627Z,3.47
2019-05-02T02:42:42.192Z,5.25
2019-05-02T02:45:18.965Z,5.78
2019-05-02T02:47:45.992Z,4.33
2019-05-02T02:50:13.653Z,6.37
2019-05-02T02:52:44.750Z,5.70
2019-05-02T02:55:09.877Z,6.03
2019-05-02T02:57:37.080Z,6.60
2019-05-02T03:00:10.585Z,8.40
2019-05-02T03:02:34.961Z,5.22
2019-05-02T03:05:02.266Z,5.03
2019-05-02T03:07:29.540Z,6.97
2019-05-02T03:09:59.715Z,3.15
2019-05-02T03:12:27.402Z,5.90
2019-05-02T03:14:56.264Z,4.60
2019-05-02T03:17:26.464Z,6.12
2019-05-02T03:19:54.390Z,3.58
2019-05-02T03:22:21.955Z,4.75
2019-05-02T03:24:49.179Z,5.08
2019-05-02T03:27:16.520Z,5.10
2019-05-02T03:29:44.545Z,6.30
2019-05-02T03:32:15.914Z,4.53
2019-05-02T03:34:52.843Z,8.08
2019-05-02T03:37:13.307Z,9.28
2019-05-02T03:39:38.740Z,8.83
2019-05-02T03:42:06.042Z,7.33
2019-05-02T03:44:33.250Z,11.68
2019-05-02T03:47:01.809Z,8.00
2019-05-02T03:49:29.468Z,6.53
2019-05-02T03:52:03.066Z,4.53
2019-05-02T03:54:25.700Z,5.33
2019-05-02T03:56:53.464Z,4.53
2019-05-02T03:59:21.057Z,3.33
2019-05-02T04:01:48.474Z,2.42
2019-05-02T04:04:20.513Z,2.67
2019-05-02T04:06:44.613Z,3.00
2019-05-02T04:09:13.444Z,3.42
2019-05-02T04:11:40.940Z,3.50
2019-05-02T04:14:14.761Z,3.85
2019-05-02T04:16:37.302Z,2.58
2019-05-02T04:19:04.589Z,3.25
2019-05-02T04:21:31.873Z,1.55
2019-05-02T04:24:10.349Z,2.00
2019-05-02T04:26:28.708Z,3.02
2019-05-02T04:28:55.909Z,3.22
2019-05-02T04:31:24.932Z,5.03
2019-05-02T04:33:52.148Z,10.30
2019-05-02T04:36:19.448Z,10.72
2019-05-02T04:38:51.194Z,8.18
2019-05-02T04:41:18.818Z,10.03
2019-05-02T04:43:54.467Z,11.95
2019-05-02T04:46:21.858Z,12.47
2019-05-02T04:48:48.320Z,12.93
2019-05-02T04:51:16.408Z,10.78
2019-05-02T04:53:45.004Z,8.23
2019-05-02T04:56:10.509Z,7.83
2019-05-02T04:58:40.734Z,7.15
2019-05-02T05:01:09.915Z,5.55
2019-05-02T05:03:37.689Z,8.08
2019-05-02T05:06:08.023Z,10.93
2019-05-02T05:08:33.957Z,16.65
2019-05-02T05:11:01.156Z,14.05
2019-05-02T05:13:29.095Z,10.25
2019-05-02T05:15:57.383Z,8.08
2019-05-02T05:18:24.770Z,7.40
2019-05-02T05:20:53.228Z,8.78
2019-05-02T05:23:22.905Z,11.90
2019-05-02T05:25:55.653Z,10.00
2019-05-02T05:28:23.677Z,22.73
2019-05-02T05:30:52.147Z,20.20
2019-05-02T05:33:19.697Z,23.50
2019-05-02T05:35:48.850Z,23.98
2019-05-02T05:38:18.066Z,13.05
2019-05-02T05:40:44.952Z,27.87
2019-05-02T05:43:15.653Z,23.18
2019-05-02T05:45:50.732Z,14.45
2019-05-02T05:48:10.065Z,11.00
2019-05-02T05:50:41.267Z,7.45
2019-05-02T05:53:07.925Z,10.35
2019-05-02T05:55:35.157Z,10.95
2019-05-02T05:58:12.148Z,17.48
2019-05-02T06:00:31.404Z,13.68
2019-05-02T06:03:10.308Z,11.28
2019-05-02T06:05:27.672Z,13.85
2019-05-02T06:07:55.092Z,10.00
2019-05-02T06:10:22.326Z,10.20
2019-05-02T06:12:49.601Z,9.10
2019-05-02T06:15:16.898Z,6.33
2019-05-02T06:17:44.178Z,5.08
2019-05-02T06:20:11.478Z,8.58
2019-05-02T06:22:38.751Z,16.20
2019-05-02T06:25:09.495Z,11.08
2019-05-02T06:27:35.836Z,11.97
2019-05-02T06:30:04.544Z,17.70
2019-05-02T06:32:32.184Z,17.25
2019-05-02T06:34:59.419Z,25.25
2019-05-02T06:37:26.633Z,38.05
2019-05-02T06:39:53.941Z,27.02
2019-05-02T06:42:21.149Z,23.80
2019-05-02T06:44:48.378Z,16.40
2019-05-02T06:47:15.580Z,17.95
2019-05-02T06:49:42.883Z,18.50
2019-05-02T06:52:10.401Z,14.03
2019-05-02T06:54:37.641Z,23.22
2019-05-02T06:57:04.917Z,28.00
2019-05-02T06:59:32.143Z,20.10
2019-05-02T07:01:59.548Z,19.65
2019-05-02T07:04:26.780Z,15.03
2019-05-02T07:06:58.692Z,11.75
2019-05-02T07:09:23.000Z,9.28
2019-05-02T07:11:57.116Z,13.18
2019-05-02T07:14:23.680Z,11.18
2019-05-02T07:17:06.529Z,14.80
2019-05-02T07:19:35.380Z,18.15
2019-05-02T07:22:04.359Z,10.70
2019-05-02T07:24:32.735Z,13.62
2019-05-02T07:27:02.242Z,9.65
2019-05-02T07:29:29.212Z,10.82
2019-05-02T07:31:56.454Z,10.50
2019-05-02T07:34:23.720Z,9.30
2019-05-02T07:36:50.992Z,11.90
2019-05-02T07:39:18.440Z,10.68
2019-05-02T07:41:45.645Z,11.45
2019-05-02T07:44:13.284Z,7.85
2019-05-02T07:46:51.259Z,13.32
2019-05-02T07:49:09.524Z,10.05
2019-05-02T07:51:36.726Z,11.73
2019-05-02T07:54:03.965Z,9.23
2019-05-02T07:56:31.234Z,7.95
2019-05-02T07:58:58.436Z,11.93
2019-05-02T08:01:25.853Z,9.88
2019-05-02T08:03:53.350Z,8.33
2019-05-02T08:06:34.045Z,10.40
2019-05-02T08:08:49.868Z,8.20
2019-05-02T08:11:17.064Z,8.23
2019-05-02T08:13:44.301Z,13.78
2019-05-02T08:16:11.972Z,8.83
2019-05-02T08:18:39.260Z,15.30
2019-05-02T08:21:06.473Z,20.08
2019-05-02T08:23:33.884Z,13.30
2019-05-02T08:26:01.092Z,22.42
2019-05-02T08:28:33.084Z,38.33
2019-05-02T08:31:00.552Z,21.87
2019-05-02T08:33:29.104Z,21.30
2019-05-02T08:35:57.041Z,15.98
2019-05-02T08:38:24.281Z,23.05
2019-05-02T08:40:51.492Z,13.15
2019-05-02T08:43:18.764Z,25.40
2019-05-02T08:45:46.457Z,39.40
2019-05-02T08:48:13.740Z,30.05
2019-05-02T08:50:41.021Z,17.37
2019-05-02T08:53:08.489Z,14.10
2019-05-02T08:55:35.764Z,10.08
2019-05-02T08:58:06.565Z,8.83
2019-05-02T09:00:37.629Z,9.83
2019-05-02T09:03:02.754Z,11.22
2019-05-02T09:05:30.253Z,9.10
2019-05-02T09:07:57.715Z,16.45
2019-05-02T09:10:25.006Z,26.68
2019-05-02T09:12:52.289Z,20.00
2019-05-02T09:15:19.632Z,13.90
2019-05-02T09:17:52.795Z,17.92
2019-05-02T09:20:20.370Z,15.10
2019-05-02T09:22:46.711Z,9.30
2019-05-02T09:25:13.933Z,10.07
2019-05-02T09:27:42.064Z,10.55
2019-05-02T09:30:12.137Z,12.05
2019-05-02T09:32:41.728Z,10.60
2019-05-02T09:35:08.784Z,8.38
2019-05-02T09:37:36.017Z,7.08
2019-05-02T09:40:06.920Z,10.88
2019-05-02T09:42:32.627Z,9.08
2019-05-02T09:44:59.984Z,14.13
2019-05-02T09:47:32.136Z,9.18
2019-05-02T09:50:12.989Z,7.35
2019-05-02T09:52:41.671Z,6.35
2019-05-02T09:55:09.591Z,9.40
2019-05-02T09:57:37.033Z,7.47
2019-05-02T10:00:10.233Z,8.30
2019-05-02T10:02:37.506Z,6.28
2019-05-02T10:05:05.085Z,7.33
2019-05-02T10:07:32.482Z,15.93
2019-05-02T10:10:03.218Z,21.70
2019-05-02T10:12:28.698Z,15.58
2019-05-02T10:14:55.929Z,10.40
2019-05-02T10:17:23.239Z,15.30
2019-05-02T10:19:54.936Z,14.25
2019-05-02T10:22:19.450Z,21.05
2019-05-02T10:24:46.753Z,13.20
2019-05-02T10:27:14.036Z,14.15
2019-05-02T10:29:41.899Z,11.45
2019-05-02T10:32:15.022Z,12.63
2019-05-02T10:34:38.096Z,8.95
2019-05-02T10:37:05.309Z,11.40
2019-05-02T10:39:34.107Z,15.38
2019-05-02T10:42:02.093Z,10.38
2019-05-02T10:44:32.642Z,9.00
2019-05-02T10:46:58.968Z,10.75
2019-05-02T10:49:45.957Z,10.23
2019-05-02T10:52:13.241Z,12.78
2019-05-02T10:54:42.092Z,15.25
2019-05-02T10:57:09.472Z,10.93
2019-05-02T10:59:36.780Z,11.55
2019-05-02T11:02:24.314Z,11.60
2019-05-02T11:04:56.027Z,9.93
2019-05-02T11:07:26.289Z,11.38
2019-05-02T11:09:52.601Z,12.82
2019-05-02T11:12:25.858Z,11.15
2019-05-02T11:15:02.296Z,9.48
2019-05-02T11:17:32.320Z,8.63
2019-05-02T11:20:02.097Z,9.45
2019-05-02T11:22:29.417Z,7.85
2019-05-02T11:24:56.692Z,8.15
2019-05-02T11:27:24.020Z,7.17
2019-05-02T11:29:52.616Z,13.43
2019-05-02T11:32:22.034Z,11.97
2019-05-02T11:34:48.962Z,8.08
2019-05-02T11:37:16.524Z,6.55
2019-05-02T11:39:49.635Z,11.80
2019-05-02T11:42:12.700Z,15.25
2019-05-02T11:44:41.788Z,18.17
2019-05-02T11:47:08.929Z,15.08
2019-05-02T11:49:36.201Z,18.20
2019-05-02T11:52:04.694Z,14.78
2019-05-02T11:54:32.132Z,12.35
2019-05-02T11:56:59.423Z,9.93
2019-05-02T11:59:27.839Z,11.60
2019-05-02T12:02:18.834Z,9.60
2019-05-02T12:04:47.440Z,12.73
2019-05-02T12:07:13.600Z,12.20
2019-05-02T12:09:44.074Z,12.65
2019-05-02T12:12:09.734Z,11.45
2019-05-02T12:14:37.102Z,10.18
2019-05-02T12:17:04.445Z,10.08
2019-05-02T12:19:32.226Z,13.58
2019-05-02T12:21:59.801Z,10.75
2019-05-02T12:24:27.103Z,12.23
2019-05-02T12:26:54.581Z,13.45
2019-05-02T12:29:22.236Z,14.95
2019-05-02T12:31:52.720Z,11.95
2019-05-02T12:34:18.730Z,13.10
2019-05-02T12:36:45.977Z,14.68
2019-05-02T12:39:13.177Z,11.35
2019-05-02T12:41:42.283Z,8.20
2019-05-02T12:44:09.356Z,10.82
2019-05-02T12:46:36.560Z,9.18
2019-05-02T12:49:03.840Z,7.97
2019-05-02T12:51:31.955Z,11.38
2019-05-02T12:53:59.476Z,10.45
2019-05-02T12:56:26.684Z,10.10
2019-05-02T12:58:54.164Z,5.92
2019-05-02T13:01:21.994Z,8.58
2019-05-02T13:03:53.738Z,9.40
2019-05-02T13:06:21.977Z,14.78
2019-05-02T13:08:49.355Z,13.85
2019-05-02T13:11:22.716Z,9.73
2019-05-02T13:13:51.234Z,12.55
2019-05-02T13:16:19.722Z,15.00
2019-05-02T13:18:47.000Z,10.82
2019-05-02T13:21:17.138Z,11.55
2019-05-02T13:23:46.066Z,8.45
2019-05-02T13:26:19.861Z,11.22
2019-05-02T13:28:44.103Z,12.03
2019-05-02T13:31:12.873Z,9.75
2019-05-02T13:34:01.787Z,8.58
2019-05-02T13:36:38.937Z,7.35
2019-05-02T13:39:06.713Z,7.08
2019-05-02T13:41:34.198Z,7.33
2019-05-02T13:44:02.234Z,10.58
2019-05-02T13:46:32.107Z,10.30
2019-05-02T13:48:59.753Z,8.35
2019-05-02T13:51:27.038Z,7.33
2019-05-02T13:53:56.063Z,9.25
2019-05-02T13:56:24.980Z,8.50
2019-05-02T13:58:52.255Z,10.82
2019-05-02T14:01:20.022Z,7.33
2019-05-02T14:03:47.277Z,5.80
2019-05-02T14:06:14.552Z,4.92
2019-05-02T14:08:55.873Z,4.97
2019-05-02T14:11:41.670Z,5.22
2019-05-02T14:14:08.877Z,8.68
2019-05-02T14:16:36.382Z,14.28
2019-05-02T14:19:03.837Z,9.85
2019-05-02T14:21:32.191Z,9.33
2019-05-02T14:24:01.584Z,7.87
2019-05-02T14:26:30.700Z,8.40
2019-05-02T14:28:57.988Z,8.70
2019-05-02T14:31:25.725Z,7.37
2019-05-02T14:34:12.133Z,7.80
2019-05-02T14:36:39.673Z,7.40
2019-05-02T14:39:07.575Z,8.58
2019-05-02T14:41:40.909Z,8.38
2019-05-02T14:44:03.835Z,8.93
2019-05-02T14:46:35.371Z,7.97
2019-05-02T14:49:00.052Z,7.00
2019-05-02T14:51:28.076Z,7.55
2019-05-02T14:53:57.551Z,7.67
2019-05-02T14:56:33.017Z,6.35
2019-05-02T14:59:02.500Z,4.85
2019-05-02T15:01:29.228Z,6.53
2019-05-02T15:03:58.360Z,6.30
2019-05-02T15:06:26.000Z,7.55
2019-05-02T15:08:53.268Z,6.35
2019-05-02T15:11:30.311Z,7.17
2019-05-02T15:13:49.408Z,6.28
2019-05-02T15:16:17.581Z,6.15
2019-05-02T15:18:47.647Z,6.45
2019-05-02T15:21:19.008Z,7.45
2019-05-02T15:23:48.920Z,6.10
2019-05-02T15:26:16.208Z,5.67
2019-05-02T15:28:44.041Z,5.22
2019-05-02T15:31:19.020Z,4.03
2019-05-02T15:34:05.080Z,5.03
2019-05-02T15:36:32.376Z,4.80
2019-05-02T15:41:29.121Z,6.35
2019-05-02T15:43:56.398Z,9.65
2019-05-02T15:46:28.201Z,8.03
2019-05-02T15:48:52.623Z,8.20
2019-05-02T15:51:19.824Z,5.53
2019-05-02T15:54:01.983Z,5.85
2019-05-02T15:56:20.334Z,5.37
2019-05-02T15:58:46.740Z,4.30
2019-05-02T16:01:24.812Z,8.45
2019-05-02T16:03:56.595Z,6.03
2019-05-02T16:06:30.525Z,6.30
2019-05-02T16:08:53.267Z,5.62
2019-05-02T16:11:20.583Z,5.08
2019-05-02T16:13:52.538Z,4.42
2019-05-02T16:16:18.376Z,6.03
2019-05-02T16:18:45.601Z,7.83
2019-05-02T16:21:18.372Z,6.70
2019-05-02T16:24:04.194Z,8.63
2019-05-02T16:26:30.342Z,11.25
2019-05-02T16:28:57.636Z,12.37
2019-05-02T16:31:25.386Z,11.83
2019-05-02T16:33:54.773Z,10.45
2019-05-02T16:36:25.970Z,12.47
2019-05-02T16:38:52.228Z,7.53
2019-05-02T16:41:21.689Z,9.33
2019-05-02T16:43:48.956Z,5.40
2019-05-02T16:46:16.223Z,4.97
2019-05-02T16:48:44.561Z,2.98
2019-05-02T16:51:27.646Z,3.30
2019-05-02T16:53:42.644Z,2.95
2019-05-02T16:56:11.563Z,8.93
2019-05-02T16:58:43.297Z,6.92
2019-05-02T17:01:07.732Z,4.90
2019-05-02T17:03:35.204Z,4.05
2019-05-02T17:06:02.477Z,3.40
2019-05-02T17:08:32.835Z,3.22
2019-05-02T17:11:02.138Z,3.67
2019-05-02T17:13:34.253Z,5.03
2019-05-02T17:15:58.277Z,3.17
2019-05-02T17:18:25.514Z,2.72
2019-05-02T17:20:56.619Z,3.02
2019-05-02T17:23:22.240Z,3.77
2019-05-02T17:25:49.804Z,3.40
2019-05-02T17:28:16.999Z,3.62
2019-05-02T17:30:44.212Z,1.77
2019-05-02T17:33:14.416Z,3.05
2019-05-02T17:35:43.430Z,3.62
2019-05-02T17:38:09.368Z,3.08
2019-05-02T17:40:36.677Z,1.95
2019-05-02T17:43:06.912Z,2.30
2019-05-02T17:45:33.352Z,4.65
2019-05-02T17:48:01.931Z,4.92
2019-05-02T17:50:33.744Z,17.77
2019-05-02T17:53:03.025Z,14.50
2019-05-02T17:55:34.526Z,14.10
2019-05-02T17:57:59.519Z,14.43
2019-05-02T18:00:28.360Z,11.40
2019-05-02T18:02:56.040Z,13.43
2019-05-02T18:05:26.497Z,10.80
2019-05-02T18:07:52.654Z,14.00
2019-05-02T18:10:24.446Z,12.18
2019-05-02T18:12:56.703Z,7.35
2019-05-02T18:15:18.158Z,8.70
2019-05-02T18:17:45.436Z,7.17
2019-05-02T18:20:12.708Z,6.57
2019-05-02T18:22:44.744Z,7.12
2019-05-02T18:25:09.329Z,5.67
2019-05-02T18:27:36.617Z,6.72
2019-05-02T18:30:05.517Z,8.05
2019-05-02T18:32:32.914Z,5.40
2019-05-02T18:35:02.500Z,5.53
2019-05-02T18:37:29.181Z,4.40
2019-05-02T18:39:56.767Z,3.55
2019-05-02T18:42:25.602Z,3.33
2019-05-02T18:44:54.509Z,3.10
2019-05-02T18:47:24.786Z,2.17
2019-05-02T18:49:53.797Z,2.42
2019-05-02T18:52:19.752Z,1.50
2019-05-02T18:54:47.434Z,2.08
2019-05-02T18:57:17.103Z,4.60
2019-05-02T18:59:43.720Z,2.02
2019-05-02T19:02:11.692Z,1.62
2019-05-02T19:04:39.819Z,1.50
2019-05-02T19:07:07.446Z,0.82
2019-05-02T19:09:47.867Z,0.75
2019-05-02T19:12:09.148Z,1.07
2019-05-02T19:14:34.962Z,1.32
2019-05-02T19:17:03.597Z,0.50
2019-05-02T19:19:32.990Z,1.10
2019-05-02T19:22:02.452Z,1.22
2019-05-02T19:24:34.888Z,0.50
2019-05-02T19:26:58.556Z,0.50
2019-05-02T19:29:27.681Z,0.35
2019-05-02T19:31:55.072Z,1.00
2019-05-02T19:34:26.666Z,0.60
2019-05-02T19:36:52.898Z,0.70
2019-05-02T19:39:23.951Z,0.70
2019-05-02T19:41:49.728Z,0.60
2019-05-02T19:44:21.409Z,0.40
2019-05-02T19:46:46.037Z,0.85
2019-05-02T19:49:16.141Z,0.80
2019-05-02T19:51:42.364Z,1.32
2019-05-02T19:54:09.561Z,0.53
2019-05-02T19:56:45.331Z,0.50
2019-05-02T19:59:05.756Z,1.72
2019-05-02T20:01:33.061Z,0.65
2019-05-02T20:04:02.338Z,0.80
2019-05-02T20:06:29.313Z,0.98
2019-05-02T20:08:59.239Z,2.45
2019-05-02T20:11:28.119Z,1.72
2019-05-02T20:13:54.620Z,2.33
2019-05-02T20:16:24.358Z,2.05
2019-05-02T20:18:52.556Z,1.32
2019-05-02T20:21:28.037Z,1.72
2019-05-02T20:23:55.354Z,1.02
2019-05-02T20:26:22.709Z,1.90
2019-05-02T20:28:49.977Z,1.60
2019-05-02T20:31:17.530Z,1.65
2019-05-02T20:33:44.849Z,2.17
2019-05-02T20:36:12.479Z,4.08
2019-05-02T20:38:41.624Z,2.27
2019-05-02T20:41:08.680Z,1.50
2019-05-02T20:43:36.135Z,2.17
2019-05-02T20:46:03.484Z,1.20
2019-05-02T20:48:32.217Z,1.05
2019-05-02T20:50:59.664Z,1.98
2019-05-02T20:53:31.061Z,1.17
2019-05-02T20:55:55.867Z,2.02
2019-05-02T20:58:23.474Z,1.10
2019-05-02T21:01:05.089Z,1.22
2019-05-02T21:03:19.921Z,1.17
2019-05-02T21:05:49.139Z,0.55
2019-05-02T21:08:23.933Z,1.00
2019-05-02T21:11:01.844Z,1.05
2019-05-02T21:13:29.149Z,1.17
2019-05-02T21:15:56.428Z,1.52
2019-05-02T21:18:23.912Z,2.47
2019-05-02T21:20:52.606Z,1.22
2019-05-02T21:23:21.357Z,2.37
2019-05-02T21:25:49.184Z,1.12
2019-05-02T21:28:16.454Z,1.40
2019-05-02T21:30:43.733Z,1.17
2019-05-02T21:33:15.416Z,1.17
2019-05-02T21:35:42.612Z,1.07
2019-05-02T21:38:11.897Z,1.02
2019-05-02T21:40:39.306Z,1.80
2019-05-02T21:43:06.531Z,1.70
2019-05-02T21:45:33.811Z,2.10
2019-05-02T21:48:02.296Z,1.85
2019-05-02T21:50:32.325Z,2.17
2019-05-02T21:53:13.454Z,4.17
2019-05-02T21:55:48.196Z,2.37
2019-05-02T21:58:15.692Z,2.47
2019-05-02T22:00:47.493Z,2.52
2019-05-02T22:03:14.925Z,1.80
2019-05-02T22:05:42.493Z,1.10
2019-05-02T22:08:09.793Z,1.70
2019-05-02T22:10:37.304Z,1.40
2019-05-02T22:13:04.576Z,1.70
2019-05-02T22:15:32.516Z,1.65
2019-05-02T22:18:01.614Z,1.05
2019-05-02T22:20:28.950Z,1.80
2019-05-02T22:22:56.172Z,1.50
2019-05-02T22:25:23.440Z,1.03
2019-05-02T22:27:53.870Z,1.95
2019-05-02T22:30:21.470Z,3.08
2019-05-02T22:32:48.551Z,1.92
2019-05-02T22:35:15.757Z,2.57
2019-05-02T22:37:44.771Z,1.37
2019-05-02T22:40:13.628Z,1.50
2019-05-02T22:42:41.758Z,2.60
2019-05-02T22:45:09.493Z,2.30
2019-05-02T22:47:36.756Z,2.83
2019-05-02T22:50:04.920Z,1.70
2019-05-02T22:52:32.553Z,1.50
2019-05-02T22:54:59.824Z,3.00
2019-05-02T22:57:27.348Z,1.57
2019-05-02T22:59:54.653Z,2.00
2019-05-02T23:02:22.070Z,1.10
2019-05-02T23:04:49.581Z,1.02
2019-05-02T23:07:16.925Z,4.80
2019-05-02T23:09:44.120Z,4.47
2019-05-02T23:12:13.062Z,5.40
2019-05-02T23:14:41.859Z,5.22
2019-05-02T23:17:09.203Z,3.22
2019-05-02T23:19:36.400Z,5.87
2019-05-02T23:22:03.627Z,5.75
2019-05-02T23:24:44.312Z,4.30
2019-05-02T23:27:19.201Z,4.58
2019-05-02T23:29:46.397Z,4.15
2019-05-02T23:32:13.631Z,5.45
2019-05-02T23:34:41.804Z,4.97
2019-05-02T23:37:09.353Z,5.60
2019-05-02T23:39:36.552Z,4.83
2019-05-02T23:42:04.033Z,4.50
2019-05-02T23:44:31.229Z,3.20
2019-05-02T23:46:58.528Z,3.42
2019-05-02T23:49:25.725Z,3.72
2019-05-02T23:51:53.220Z,3.15
2019-05-02T23:54:22.010Z,3.52
2019-05-02T23:56:49.325Z,3.52
2019-05-02T23:59:16.797Z,3.02
